Time;durP1;ratioP1;P1;durP2;ratioP2;P2;SDS_P1;SDS_P2;PMS_P1;PMS_P2;Temp;Humidity;BMP_temperature;BMP_pressure;BME280_temperature;BME280_humidity;BME280_pressure;Samples;Min_cycle;Max_cycle;Signal;HPM_P1;HPM_P2
2024/01/21 00:00:48;;;;;;;1.85;0.77;;;;;;;22.08;40.23;101913.13;2082475;28;21435;-61
2024/01/21 00:01:50;;;;;;;1.92;0.73;;;;;;;22.08;40.14;101913.13;2089438;28;20038;-61
2024/01/21 00:02:51;;;;;;;2.78;0.82;;;;;;;22.09;39.98;101909.25;2089346;28;20032;-62
2024/01/21 00:03:55;;;;;;;2.35;0.70;;;;;;;22.08;40.04;101913.13;2106220;28;20075;-61
2024/01/21 00:04:57;;;;;;;1.15;0.70;;;;;;;22.08;39.99;101913.13;2105492;28;20028;-61
2024/01/21 00:05:58;;;;;;;1.75;0.80;;;;;;;22.09;40.09;101911.97;2089316;28;20033;-61
2024/01/21 00:07:00;;;;;;;0.77;0.73;;;;;;;22.09;39.91;101920.19;2081007;28;20061;-60
2024/01/21 00:08:02;;;;;;;1.00;0.68;;;;;;;22.09;39.95;101921.00;2089640;28;20085;-60
2024/01/21 00:09:04;;;;;;;1.30;0.70;;;;;;;22.08;39.88;101918.59;2089512;28;20037;-60
2024/01/21 00:10:10;;;;;;;1.10;0.73;;;;;;;22.09;39.99;101922.94;2072857;28;20317;-60
2024/01/21 00:11:12;;;;;;;1.42;0.65;;;;;;;22.09;40.07;101922.94;2066805;28;20038;-60
2024/01/21 00:12:13;;;;;;;1.45;0.65;;;;;;;22.09;39.95;101923.72;2073374;28;20026;-60
2024/01/21 00:13:23;;;;;;;1.80;0.90;;;;;;;22.09;40.02;101925.66;2089512;28;20148;-60
2024/01/21 00:14:25;;;;;;;1.08;0.70;;;;;;;22.09;40.01;101920.19;2089655;28;20103;-60
2024/01/21 00:15:26;;;;;;;1.48;0.80;;;;;;;22.09;39.91;101917.47;2081349;28;20033;-59
2024/01/21 00:16:32;;;;;;;1.15;0.70;;;;;;;22.09;39.87;101915.50;2089539;28;20068;-59
2024/01/21 00:17:34;;;;;;;1.02;0.70;;;;;;;22.09;40.01;101915.50;2081179;28;20156;-60
2024/01/21 00:18:35;;;;;;;2.17;0.80;;;;;;;22.09;39.98;101911.97;2073025;28;20053;-60
2024/01/21 00:19:40;;;;;;;1.77;0.80;;;;;;;22.09;40.06;101912.78;2089462;28;20810;-60
2024/01/21 00:20:42;;;;;;;1.25;0.80;;;;;;;22.10;39.97;101910.84;2097583;28;20060;-60
2024/01/21 00:21:45;;;;;;;1.45;0.90;;;;;;;22.10;40.02;101902.63;2097542;28;20037;-61
2024/01/21 00:22:50;;;;;;;1.00;0.80;;;;;;;22.08;39.83;101907.63;2089496;28;20803;-61
2024/01/21 00:23:51;;;;;;;1.35;1.00;;;;;;;22.09;39.86;101914.72;2081318;28;20024;-61
2024/01/21 00:24:53;;;;;;;2.08;0.88;;;;;;;22.10;39.84;101908.94;2072927;28;20765;-61
2024/01/21 00:25:55;;;;;;;1.30;0.80;;;;;;;22.10;39.83;101916.31;2078693;28;20058;-60
2024/01/21 00:26:56;;;;;;;1.38;0.80;;;;;;;22.11;39.93;101917.94;2088048;28;20041;-60
2024/01/21 00:27:58;;;;;;;2.10;0.90;;;;;;;22.11;39.91;101915.22;2083884;28;20046;-60
2024/01/21 00:29:00;;;;;;;1.20;0.80;;;;;;;22.11;40.01;101923.44;2085432;28;20124;-59
2024/01/21 00:30:04;;;;;;;1.58;0.88;;;;;;;22.12;39.93;101922.28;2101543;28;20032;-60
2024/01/21 00:31:07;;;;;;;1.15;0.70;;;;;;;22.10;39.84;101917.16;2105434;28;20029;-60
2024/01/21 00:32:09;;;;;;;1.05;0.65;;;;;;;22.13;39.81;101926.63;2086794;28;20145;-61
2024/01/21 00:33:12;;;;;;;1.17;0.82;;;;;;;22.13;39.94;101929.38;2091810;28;20048;-61
2024/01/21 00:34:14;;;;;;;1.27;0.90;;;;;;;22.12;39.88;101930.50;2101255;28;20032;-61
2024/01/21 00:35:15;;;;;;;1.35;0.88;;;;;;;22.12;39.92;101931.31;2084646;28;20029;-61
2024/01/21 00:36:17;;;;;;;1.63;0.90;;;;;;;22.13;39.80;101934.84;2077363;28;20062;-61
2024/01/21 00:37:20;;;;;;;1.48;0.77;;;;;;;22.13;39.91;101937.59;2084134;28;20205;-61
2024/01/21 00:38:21;;;;;;;1.52;0.90;;;;;;;22.13;39.95;101934.84;2094200;28;20032;-61
2024/01/21 00:39:22;;;;;;;2.33;1.00;;;;;;;22.11;39.89;101928.91;2092297;28;20141;-61
2024/01/21 00:40:24;;;;;;;1.35;0.90;;;;;;;22.13;39.76;101932.94;2089327;28;20017;-61
2024/01/21 00:41:26;;;;;;;1.90;0.98;;;;;;;22.12;39.96;101935.97;2101936;28;20056;-61
2024/01/21 00:42:28;;;;;;;1.65;1.00;;;;;;;22.14;39.83;101939.22;2103646;28;20021;-61
2024/01/21 00:43:30;;;;;;;2.65;1.25;;;;;;;22.14;39.97;101934.53;2102462;28;20143;-62
2024/01/21 00:44:36;;;;;;;1.67;0.90;;;;;;;22.14;39.96;101937.28;2100736;28;20032;-60
2024/01/21 00:45:37;;;;;;;1.92;1.00;;;;;;;22.13;39.96;101943.91;2101302;28;20018;-61
2024/01/21 00:46:39;;;;;;;3.22;1.10;;;;;;;22.14;39.92;101939.22;2093804;28;20107;-61
2024/01/21 00:47:41;;;;;;;1.60;0.88;;;;;;;22.14;39.94;101933.75;2086852;28;20858;-61
2024/01/21 00:48:42;;;;;;;2.28;0.90;;;;;;;22.15;39.75;101940.81;2068266;28;20023;-61
2024/01/21 00:49:44;;;;;;;1.23;0.90;;;;;;;22.15;39.88;101940.81;2086632;28;20168;-61
2024/01/21 00:50:47;;;;;;;1.13;0.82;;;;;;;22.15;39.93;101940.81;2102561;28;20543;-61
2024/01/21 00:51:49;;;;;;;3.03;1.20;;;;;;;22.15;39.79;101936.13;2104041;28;20036;-61
2024/01/21 00:52:51;;;;;;;2.40;1.27;;;;;;;22.15;39.78;101933.41;2101921;28;20864;-61
2024/01/21 00:53:52;;;;;;;1.50;0.93;;;;;;;22.15;39.81;101927.13;2086190;28;20949;-61
2024/01/21 00:54:54;;;;;;;1.65;0.90;;;;;;;22.15;39.74;101935.34;2078220;28;20031;-61
2024/01/21 00:55:55;;;;;;;1.60;0.93;;;;;;;22.14;39.94;101928.25;2085671;28;20112;-62
2024/01/21 00:56:57;;;;;;;2.75;1.10;;;;;;;22.15;39.79;101936.13;2093987;28;20029;-62
2024/01/21 00:57:59;;;;;;;2.25;1.13;;;;;;;22.16;39.80;101931.50;2093703;28;20032;-61
2024/01/21 00:59:02;;;;;;;1.88;1.00;;;;;;;22.16;39.85;101936.97;2085219;28;20057;-61
2024/01/21 01:00:06;;;;;;;1.58;1.00;;;;;;;22.16;39.78;101937.81;2081323;28;20041;-61
2024/01/21 01:01:08;;;;;;;2.25;1.00;;;;;;;22.16;39.90;101935.06;2088129;28;20789;-61
2024/01/21 01:02:10;;;;;;;1.80;0.90;;;;;;;22.16;39.82;101931.50;2098390;28;20171;-61
2024/01/21 01:03:11;;;;;;;2.50;1.20;;;;;;;22.16;39.74;101931.50;2098724;28;20115;-62
2024/01/21 01:04:13;;;;;;;1.63;1.00;;;;;;;22.17;39.89;101933.13;2098954;28;20021;-61
2024/01/21 01:05:15;;;;;;;1.27;0.85;;;;;;;22.18;39.87;101937.47;2099072;28;20045;-61
2024/01/21 01:06:17;;;;;;;2.45;1.10;;;;;;;22.16;39.92;101939.72;2089724;28;20183;-62
2024/01/21 01:07:18;;;;;;;2.67;1.10;;;;;;;22.18;39.73;101935.53;2082086;28;20033;-61
2024/01/21 01:08:20;;;;;;;1.65;1.00;;;;;;;22.16;39.90;101932.31;2089987;28;20033;-62
2024/01/21 01:09:22;;;;;;;1.90;1.00;;;;;;;22.16;39.81;101935.06;2090195;28;20863;-61
2024/01/21 01:10:27;;;;;;;2.20;1.08;;;;;;;22.18;39.85;101934.72;2073935;28;20031;-61
2024/01/21 01:11:28;;;;;;;2.63;0.80;;;;;;;22.18;39.71;101931.97;2080831;28;20895;-61
2024/01/21 01:12:30;;;;;;;2.22;1.00;;;;;;;22.16;39.75;101926.84;2090081;28;20030;-62
2024/01/21 01:13:32;;;;;;;2.33;1.17;;;;;;;22.18;39.83;101929.25;2089133;28;20037;-61
2024/01/21 01:14:37;;;;;;;1.70;1.00;;;;;;;22.18;39.92;101935.53;2086171;28;20072;-61
2024/01/21 01:15:39;;;;;;;2.30;1.33;;;;;;;22.18;39.94;101940.19;2106834;28;20063;-61
2024/01/21 01:16:41;;;;;;;1.83;1.25;;;;;;;22.19;39.84;101939.06;2097823;28;20152;-61
2024/01/21 01:17:42;;;;;;;1.35;0.95;;;;;;;22.17;39.68;101928.44;2086477;28;20029;-61
2024/01/21 01:18:43;;;;;;;1.25;0.90;;;;;;;22.16;39.74;101932.31;2078796;28;20209;-61
2024/01/21 01:19:45;;;;;;;2.40;1.08;;;;;;;22.18;39.87;101930.03;2082195;28;20034;-61
2024/01/21 01:20:47;;;;;;;3.25;1.40;;;;;;;22.16;39.87;101921.38;2079703;28;20017;-61
2024/01/21 01:21:50;;;;;;;1.77;0.90;;;;;;;22.17;39.78;101925.69;2081351;28;20025;-61
2024/01/21 01:22:53;;;;;;;2.53;1.10;;;;;;;22.18;39.85;101921.81;2088336;28;21168;-61
2024/01/21 01:23:55;;;;;;;2.45;1.13;;;;;;;22.18;39.78;101915.53;2090098;28;20033;-61
2024/01/21 01:24:57;;;;;;;2.35;1.00;;;;;;;22.19;39.79;101922.63;2080111;28;20014;-61
2024/01/21 01:26:00;;;;;;;1.65;1.05;;;;;;;22.18;39.87;101913.59;2087110;28;20021;-61
2024/01/21 01:27:05;;;;;;;1.83;1.10;;;;;;;22.18;40.01;101921.03;2098991;28;21149;-62
2024/01/21 01:28:07;;;;;;;2.38;1.23;;;;;;;22.17;39.88;101922.97;2095782;28;20068;-61
2024/01/21 01:29:09;;;;;;;1.92;1.10;;;;;;;22.18;39.84;101930.03;2097782;28;20021;-61
2024/01/21 01:30:12;;;;;;;2.03;0.93;;;;;;;22.19;39.73;101917.16;2096299;28;20040;-61
2024/01/21 01:31:21;;;;;;;1.92;1.02;;;;;;;22.18;39.89;101918.28;2081898;28;20029;-61
2024/01/21 01:32:24;;;;;;;2.55;1.35;;;;;;;22.18;39.72;101923.75;2091246;28;20017;-62
2024/01/21 01:33:26;;;;;;;1.40;0.90;;;;;;;22.19;39.80;101925.38;2098722;28;20059;-61
2024/01/21 01:34:27;;;;;;;2.03;1.00;;;;;;;22.17;39.67;101925.69;2089797;28;20050;-61
2024/01/21 01:35:28;;;;;;;2.67;1.10;;;;;;;22.16;39.80;101924.09;2065193;28;20031;-60
2024/01/21 01:36:33;;;;;;;2.20;1.17;;;;;;;22.18;39.83;101923.75;2066663;28;20042;-61
2024/01/21 01:37:34;;;;;;;2.88;1.40;;;;;;;22.18;39.85;101921.03;2090341;28;20136;-61
2024/01/21 01:38:36;;;;;;;2.75;1.20;;;;;;;22.18;39.80;101926.50;2097164;28;20079;-61
2024/01/21 01:39:40;;;;;;;2.35;1.08;;;;;;;22.18;39.79;101924.56;2098534;28;20166;-61
2024/01/21 01:40:45;;;;;;;2.70;1.30;;;;;;;22.18;39.91;101929.25;2089952;28;20876;-61
2024/01/21 01:41:48;;;;;;;2.22;0.98;;;;;;;22.19;39.84;101928.09;2079736;28;20022;-61
2024/01/21 01:42:57;;;;;;;3.65;1.30;;;;;;;22.18;39.79;101923.75;2098921;28;20914;-59
2024/01/21 01:44:06;;;;;;;2.88;1.15;;;;;;;22.18;39.77;101929.25;2098441;28;20091;-59
2024/01/21 01:45:09;;;;;;;1.75;1.17;;;;;;;22.19;39.85;101925.38;2087725;28;20022;-59
2024/01/21 01:46:11;;;;;;;5.28;1.40;;;;;;;22.19;39.87;101930.84;2074100;28;20035;-59
2024/01/21 01:47:12;;;;;;;2.42;1.08;;;;;;;22.16;39.89;101929.59;2073620;28;20746;-59
2024/01/21 01:48:14;;;;;;;2.47;0.90;;;;;;;22.19;39.74;101934.41;2082079;28;20152;-59
2024/01/21 01:49:16;;;;;;;1.77;1.05;;;;;;;22.19;39.83;101941.81;2081768;28;20029;-60
2024/01/21 01:50:18;;;;;;;1.90;1.20;;;;;;;22.18;39.86;101945.69;2082027;28;20034;-59
2024/01/21 01:51:21;;;;;;;2.50;1.17;;;;;;;22.19;39.73;101941.81;2090145;28;20041;-60
2024/01/21 01:52:22;;;;;;;2.47;1.17;;;;;;;22.19;39.82;101937.16;2073799;28;20026;-59
2024/01/21 01:53:25;;;;;;;2.95;1.02;;;;;;;22.19;39.79;101936.31;2082079;28;20139;-60
2024/01/21 01:54:29;;;;;;;3.38;1.08;;;;;;;22.20;39.94;101940.69;2081928;28;20041;-60
2024/01/21 01:55:31;;;;;;;2.70;1.25;;;;;;;22.19;39.74;101939.91;2090402;28;20065;-61
2024/01/21 01:56:32;;;;;;;2.33;1.17;;;;;;;22.20;39.91;101946.16;2090002;28;20029;-60
2024/01/21 01:57:35;;;;;;;1.65;0.93;;;;;;;22.20;39.84;101940.69;2082388;28;20136;-60
2024/01/21 01:58:38;;;;;;;2.40;1.20;;;;;;;22.20;39.82;101943.44;2090577;28;20048;-60
2024/01/21 01:59:40;;;;;;;2.45;1.30;;;;;;;22.20;39.82;101946.16;2090604;28;20143;-60
2024/01/21 02:00:43;;;;;;;2.17;1.00;;;;;;;22.20;39.88;101948.91;2081749;28;20029;-59
2024/01/21 02:01:44;;;;;;;2.72;1.20;;;;;;;22.19;39.78;101945.38;2082485;28;20030;-60
2024/01/21 02:02:46;;;;;;;1.50;0.95;;;;;;;22.20;39.87;101946.97;2089815;28;20026;-60
2024/01/21 02:03:48;;;;;;;2.00;1.20;;;;;;;22.21;39.70;101945.03;2098444;28;20123;-60
2024/01/21 02:04:49;;;;;;;1.67;1.00;;;;;;;22.20;39.84;101944.22;2106810;28;20870;-60
2024/01/21 02:05:51;;;;;;;1.83;1.00;;;;;;;22.22;39.78;101946.63;2089992;28;20107;-60
2024/01/21 02:06:52;;;;;;;1.67;1.00;;;;;;;22.21;39.68;101950.50;2073953;28;20101;-59
2024/01/21 02:07:54;;;;;;;1.70;0.93;;;;;;;22.20;39.91;101949.72;2082148;28;20026;-59
2024/01/21 02:08:56;;;;;;;2.45;0.90;;;;;;;22.21;39.70;101951.31;2081472;28;20145;-59
2024/01/21 02:10:00;;;;;;;1.30;0.90;;;;;;;22.21;39.75;101954.06;2074170;28;20050;-59
2024/01/21 02:11:03;;;;;;;1.10;1.00;;;;;;;22.21;39.68;101950.50;2090187;28;20136;-60
2024/01/21 02:12:05;;;;;;;3.50;1.13;;;;;;;22.21;39.71;101954.06;2098735;28;20033;-60
2024/01/21 02:13:08;;;;;;;2.85;1.25;;;;;;;22.21;39.79;101953.25;2106268;28;20880;-59
2024/01/21 02:14:10;;;;;;;1.98;0.93;;;;;;;22.20;39.82;101946.97;2081621;28;20034;-60
2024/01/21 02:15:12;;;;;;;1.80;1.10;;;;;;;22.21;39.77;101945.03;2082371;28;20970;-60
2024/01/21 02:16:14;;;;;;;3.22;1.00;;;;;;;22.21;39.67;101945.03;2098548;28;20033;-59
2024/01/21 02:17:15;;;;;;;1.92;1.10;;;;;;;22.21;39.69;101945.03;2097890;28;20210;-59
2024/01/21 02:18:19;;;;;;;1.55;1.00;;;;;;;22.21;39.78;101939.56;2106489;28;20897;-59
2024/01/21 02:19:26;;;;;;;1.88;0.98;;;;;;;22.20;39.79;101946.16;2106585;28;20063;-59
2024/01/21 02:20:30;;;;;;;;;;;;;;;22.22;39.76;101943.91;2106046;28;20028;-59
2024/01/21 02:21:34;;;;;;;2.22;1.00;;;;;;;22.22;39.73;101941.16;2099043;28;19962;-59
2024/01/21 02:22:39;;;;;;;2.50;0.90;;;;;;;22.20;39.84;101944.22;2098384;28;20037;-59
2024/01/21 02:23:41;;;;;;;2.25;1.00;;;;;;;22.21;39.77;101945.03;2090275;28;20104;-59
2024/01/21 02:24:43;;;;;;;2.70;1.10;;;;;;;22.21;39.78;101945.84;2081861;28;20132;-59
2024/01/21 02:25:44;;;;;;;2.03;1.00;;;;;;;22.21;39.83;101939.56;2082051;28;20069;-59
2024/01/21 02:26:47;;;;;;;1.58;1.08;;;;;;;22.21;39.78;101945.84;2090235;28;20029;-60
2024/01/21 02:27:49;;;;;;;1.70;1.10;;;;;;;22.21;39.67;101942.28;2098217;28;20033;-59
2024/01/21 02:28:52;;;;;;;2.05;1.08;;;;;;;22.20;39.78;101944.22;2090030;28;20025;-59
2024/01/21 02:29:56;;;;;;;2.38;1.23;;;;;;;22.21;39.69;101945.84;2082118;28;21288;-59
2024/01/21 02:30:57;;;;;;;1.75;0.80;;;;;;;22.21;39.70;101939.56;2082121;28;20077;-60
2024/01/21 02:31:59;;;;;;;2.08;1.10;;;;;;;22.22;39.66;101941.16;2081406;28;20046;-60
2024/01/21 02:33:01;;;;;;;1.52;0.90;;;;;;;22.21;39.86;101939.56;2081893;28;20148;-60
2024/01/21 02:34:03;;;;;;;2.05;0.80;;;;;;;22.21;39.67;101934.06;2089184;28;20136;-59
2024/01/21 02:35:05;;;;;;;2.22;0.88;;;;;;;22.21;39.83;101932.13;2089540;28;20161;-60
2024/01/21 02:36:07;;;;;;;1.77;1.00;;;;;;;22.22;39.81;101935.69;2081464;28;20864;-59
2024/01/21 02:37:09;;;;;;;1.05;0.75;;;;;;;22.21;39.78;101936.81;2082173;28;20042;-59
2024/01/21 02:38:11;;;;;;;2.20;0.88;;;;;;;22.20;39.83;101937.97;2081721;28;20040;-59
2024/01/21 02:39:12;;;;;;;2.40;1.08;;;;;;;22.21;39.71;101936.81;2073778;28;20073;-59
2024/01/21 02:40:14;;;;;;;1.33;0.80;;;;;;;22.21;39.92;101939.56;2073103;28;20129;-60
2024/01/21 02:41:16;;;;;;;1.73;1.13;;;;;;;22.22;39.74;101935.69;2073746;28;20018;-59
2024/01/21 02:42:18;;;;;;;1.40;1.00;;;;;;;22.22;39.77;101941.16;2081575;28;20028;-60
2024/01/21 02:43:20;;;;;;;2.78;1.00;;;;;;;22.21;39.71;101942.28;2098558;28;20799;-60
2024/01/21 02:44:22;;;;;;;1.20;0.57;;;;;;;22.21;39.74;101939.56;2098127;28;20041;-60
2024/01/21 02:45:24;;;;;;;2.25;0.80;;;;;;;22.22;39.70;101941.16;2089953;28;20029;-59
2024/01/21 02:46:25;;;;;;;2.45;1.00;;;;;;;22.22;39.92;101946.63;2081395;28;20145;-59
2024/01/21 02:47:27;;;;;;;1.30;0.90;;;;;;;22.23;39.82;101947.47;2082020;28;20040;-60
2024/01/21 02:48:29;;;;;;;1.48;0.80;;;;;;;22.22;39.97;101941.16;2089866;28;20164;-60
2024/01/21 02:49:33;;;;;;;1.10;0.60;;;;;;;22.23;39.83;101942.78;2081506;28;20061;-60
2024/01/21 02:50:34;;;;;;;1.77;0.90;;;;;;;22.23;39.89;101947.47;2090339;28;20052;-59
2024/01/21 02:51:36;;;;;;;1.98;0.90;;;;;;;22.21;39.84;101942.28;2098021;28;20098;-59
2024/01/21 02:52:37;;;;;;;1.25;0.82;;;;;;;22.23;39.84;101933.75;2089560;28;20033;-59
2024/01/21 02:53:39;;;;;;;1.60;0.90;;;;;;;22.23;39.74;101942.00;2089663;28;20026;-61
2024/01/21 02:54:41;;;;;;;1.13;0.80;;;;;;;22.23;39.81;101942.00;2081745;28;20980;-60
2024/01/21 02:55:42;;;;;;;1.65;0.90;;;;;;;22.22;39.74;101941.16;2081850;28;21046;-60
2024/01/21 02:56:44;;;;;;;2.05;0.90;;;;;;;22.22;39.93;101935.69;2073357;28;20884;-60
2024/01/21 02:57:46;;;;;;;1.60;0.95;;;;;;;22.22;39.86;101930.19;2082199;28;20996;-59
2024/01/21 02:58:51;;;;;;;1.42;0.80;;;;;;;22.22;39.86;101930.19;2081687;28;20777;-60
2024/01/21 02:59:52;;;;;;;1.50;0.80;;;;;;;22.22;39.78;101930.19;2066963;28;20031;-59
2024/01/21 03:00:54;;;;;;;1.23;0.73;;;;;;;22.22;39.83;101935.69;2073603;28;20077;-59
2024/01/21 03:01:57;;;;;;;1.70;0.60;;;;;;;22.22;39.91;101932.94;2081813;28;20099;-60
2024/01/21 03:02:59;;;;;;;1.00;0.70;;;;;;;22.23;39.94;101925.53;2081515;28;20979;-59
2024/01/21 03:04:01;;;;;;;2.45;0.77;;;;;;;22.23;39.77;101931.03;2081780;28;20026;-60
2024/01/21 03:05:02;;;;;;;1.83;0.85;;;;;;;22.23;39.75;101940.03;2089778;28;20046;-60
2024/01/21 03:06:04;;;;;;;1.08;0.70;;;;;;;22.19;39.87;101926.19;2089837;28;20891;-61
2024/01/21 03:07:06;;;;;;;1.33;0.85;;;;;;;22.23;39.94;101934.56;2098701;28;20036;-60
2024/01/21 03:08:09;;;;;;;1.25;0.80;;;;;;;22.23;39.86;101936.50;2089885;28;20044;-60
2024/01/21 03:09:12;;;;;;;1.83;0.88;;;;;;;22.23;39.93;101931.81;2089945;28;20136;-60
2024/01/21 03:10:14;;;;;;;1.58;0.80;;;;;;;22.21;39.99;101934.88;2098450;28;20045;-60
2024/01/21 03:11:16;;;;;;;0.80;0.60;;;;;;;22.23;39.86;101931.03;2106764;28;20075;-60
2024/01/21 03:12:17;;;;;;;1.55;0.60;;;;;;;22.23;39.77;101936.50;2106984;28;20036;-60
2024/01/21 03:13:19;;;;;;;1.08;0.60;;;;;;;22.23;39.77;101937.31;2097851;28;20079;-60
2024/01/21 03:14:21;;;;;;;0.82;0.63;;;;;;;22.24;39.91;101938.09;2081651;28;20332;-61
2024/01/21 03:15:22;;;;;;;1.05;0.60;;;;;;;22.23;39.78;101937.31;2081554;28;20026;-60
2024/01/21 03:16:24;;;;;;;1.50;0.60;;;;;;;22.23;39.98;101945.53;2090369;28;20143;-59
2024/01/21 03:17:28;;;;;;;0.82;0.55;;;;;;;22.24;39.88;101941.66;2097329;28;20863;-60
2024/01/21 03:18:30;;;;;;;0.68;0.68;;;;;;;22.23;39.89;101939.25;2090102;28;20045;-60
2024/01/21 03:19:31;;;;;;;1.55;0.70;;;;;;;22.23;39.90;101940.03;2089723;28;20029;-60
2024/01/21 03:20:35;;;;;;;0.90;0.70;;;;;;;22.23;39.94;101939.25;2081473;28;20042;-60
2024/01/21 03:21:39;;;;;;;1.50;0.90;;;;;;;22.22;39.82;101935.69;2082075;28;20124;-60
2024/01/21 03:22:44;;;;;;;1.20;0.60;;;;;;;22.24;39.84;101932.63;2082225;28;20030;-60
2024/01/21 03:23:45;;;;;;;1.95;0.98;;;;;;;22.22;39.89;101935.69;2072940;28;20164;-60
2024/01/21 03:24:47;;;;;;;0.80;0.60;;;;;;;22.23;39.80;101937.31;2065246;28;20106;-60
2024/01/21 03:25:49;;;;;;;0.98;0.60;;;;;;;22.24;39.94;101938.09;2073459;28;20857;-60
2024/01/21 03:26:50;;;;;;;0.95;0.65;;;;;;;22.24;39.87;101938.91;2081686;28;20022;-60
2024/01/21 03:27:55;;;;;;;1.95;0.77;;;;;;;22.24;39.84;101938.91;2082356;28;20074;-59
2024/01/21 03:28:57;;;;;;;0.70;0.55;;;;;;;22.23;39.90;101940.03;2081922;28;20026;-59
2024/01/21 03:29:58;;;;;;;0.77;0.60;;;;;;;22.23;39.94;101940.03;2081573;28;20042;-59
2024/01/21 03:31:00;;;;;;;0.88;0.73;;;;;;;22.24;39.92;101947.13;2090023;28;20888;-60
2024/01/21 03:32:04;;;;;;;0.82;0.60;;;;;;;22.24;39.81;101943.59;2089656;28;20033;-59
2024/01/21 03:33:09;;;;;;;1.33;0.80;;;;;;;22.24;39.92;101946.31;2082258;28;20018;-60
2024/01/21 03:34:10;;;;;;;1.00;0.70;;;;;;;22.24;40.01;101938.09;2074084;28;20042;-60
2024/01/21 03:35:12;;;;;;;1.23;0.73;;;;;;;22.23;40.05;101934.56;2081611;28;20034;-60
2024/01/21 03:36:14;;;;;;;1.20;0.90;;;;;;;22.24;39.93;101944.38;2090130;28;20034;-60
2024/01/21 03:37:16;;;;;;;1.33;0.73;;;;;;;22.25;39.96;101940.50;2089803;28;20033;-60
2024/01/21 03:38:17;;;;;;;1.73;0.60;;;;;;;22.24;39.84;101938.09;2097996;28;20037;-61
2024/01/21 03:39:19;;;;;;;2.10;0.68;;;;;;;22.21;39.91;101931.34;2081516;28;20132;-61
2024/01/21 03:40:21;;;;;;;1.95;0.70;;;;;;;22.24;39.99;101933.44;2081597;28;20923;-60
2024/01/21 03:41:23;;;;;;;1.33;0.70;;;;;;;22.25;39.90;101935.03;2097640;28;20028;-60
2024/01/21 03:42:25;;;;;;;1.25;0.75;;;;;;;22.25;39.98;101935.03;2088357;28;20052;-60
2024/01/21 03:43:26;;;;;;;1.63;0.73;;;;;;;22.25;40.00;101931.50;2080003;28;20030;-60
2024/01/21 03:44:28;;;;;;;1.30;0.70;;;;;;;22.25;39.95;101942.44;2080105;28;20034;-61
2024/01/21 03:45:30;;;;;;;0.75;0.57;;;;;;;22.25;40.03;101939.72;2089680;28;20065;-61
2024/01/21 03:46:32;;;;;;;1.33;0.75;;;;;;;22.25;40.03;101929.56;2089633;28;20157;-61
2024/01/21 03:47:33;;;;;;;1.58;0.77;;;;;;;22.24;40.05;101930.69;2090021;28;20045;-59
2024/01/21 03:48:37;;;;;;;0.95;0.70;;;;;;;22.25;40.07;101931.50;2089744;28;20091;-59
2024/01/21 03:49:40;;;;;;;1.40;0.80;;;;;;;22.25;40.07;101924.06;2081648;28;20037;-59
2024/01/21 03:50:42;;;;;;;1.65;0.80;;;;;;;22.26;39.96;101933.09;2082121;28;20045;-59
2024/01/21 03:51:43;;;;;;;1.25;0.70;;;;;;;22.25;40.04;101926.81;2081356;28;20042;-59
2024/01/21 03:52:46;;;;;;;1.23;0.80;;;;;;;22.25;40.07;101926.81;2089706;28;20082;-59
2024/01/21 03:53:48;;;;;;;1.55;0.88;;;;;;;22.25;39.95;101926.81;2098461;28;20922;-59
2024/01/21 03:54:51;;;;;;;2.15;0.90;;;;;;;22.26;39.90;101924.88;2097846;28;20029;-58
2024/01/21 03:55:53;;;;;;;1.63;0.70;;;;;;;22.25;39.93;101929.56;2098141;28;20175;-59
2024/01/21 03:56:54;;;;;;;2.03;0.50;;;;;;;22.26;39.88;101922.13;2089327;28;21133;-64
2024/01/21 03:57:56;;;;;;;0.80;0.80;;;;;;;22.26;40.11;101922.97;2081994;28;20045;-59
2024/01/21 03:58:58;;;;;;;1.58;0.88;;;;;;;22.25;40.00;101926.81;2081437;28;20038;-59
2024/01/21 04:00:01;;;;;;;1.95;1.00;;;;;;;22.26;39.95;101927.59;2081705;28;20029;-59
2024/01/21 04:01:13;;;;;;;1.23;0.90;;;;;;;22.26;39.98;101936.66;2097838;28;20052;-59
2024/01/21 04:02:14;;;;;;;1.58;0.70;;;;;;;22.26;40.13;101925.69;2098239;28;20114;-59
2024/01/21 04:03:16;;;;;;;1.70;0.70;;;;;;;22.27;40.03;101932.78;2098112;28;20036;-59
2024/01/21 04:04:18;;;;;;;1.45;0.80;;;;;;;22.27;40.13;101935.53;2081288;28;20868;-59
2024/01/21 04:05:20;;;;;;;0.80;0.50;;;;;;;22.27;40.11;101934.72;2081295;28;20045;-59
2024/01/21 04:06:21;;;;;;;0.82;0.63;;;;;;;22.26;40.14;101931.19;2098135;28;20151;-59
2024/01/21 04:07:22;;;;;;;1.10;0.52;;;;;;;22.27;40.04;101927.31;2089518;28;20029;-59
2024/01/21 04:08:24;;;;;;;1.13;0.70;;;;;;;22.27;40.04;101927.31;2090200;28;20848;-60
2024/01/21 04:09:26;;;;;;;1.10;0.70;;;;;;;22.28;40.12;101928.09;2097885;28;20036;-59
2024/01/21 04:10:29;;;;;;;1.30;0.80;;;;;;;22.27;40.12;101932.78;2089782;28;20033;-59
2024/01/21 04:11:31;;;;;;;1.25;0.50;;;;;;;22.28;40.04;101931.63;2089820;28;21255;-59
2024/01/21 04:12:34;;;;;;;1.08;0.63;;;;;;;22.27;40.10;101927.31;2089492;28;20048;-59
2024/01/21 04:13:36;;;;;;;0.85;0.60;;;;;;;22.27;40.10;101924.56;2089482;28;20035;-59
2024/01/21 04:14:41;;;;;;;0.90;0.52;;;;;;;22.28;40.07;101933.59;2081561;28;20041;-59
2024/01/21 04:15:43;;;;;;;1.70;0.77;;;;;;;22.28;40.12;101928.91;2081373;28;20160;-59
2024/01/21 04:16:44;;;;;;;1.27;0.60;;;;;;;22.28;40.11;101928.91;2089608;28;20018;-59
2024/01/21 04:17:47;;;;;;;1.20;0.68;;;;;;;22.28;40.05;101928.09;2097620;28;20050;-59
2024/01/21 04:18:50;;;;;;;1.27;0.68;;;;;;;22.29;40.02;101929.69;2089305;28;20907;-59
2024/01/21 04:19:51;;;;;;;0.75;0.55;;;;;;;22.28;40.12;101931.63;2081500;28;20037;-59
2024/01/21 04:20:53;;;;;;;1.13;0.70;;;;;;;22.28;40.00;101934.38;2081622;28;20847;-59
2024/01/21 04:21:55;;;;;;;1.40;0.65;;;;;;;22.29;40.06;101933.28;2097842;28;20021;-60
2024/01/21 04:22:56;;;;;;;1.63;0.75;;;;;;;22.29;40.17;101935.19;2089097;28;20036;-59
2024/01/21 04:23:59;;;;;;;0.68;0.57;;;;;;;22.30;39.92;101934.06;2065074;28;20049;-58
2024/01/21 04:25:00;;;;;;;1.30;0.70;;;;;;;22.29;40.08;101930.53;2073191;28;20149;-58
2024/01/21 04:26:01;;;;;;;0.82;0.60;;;;;;;22.29;40.05;101929.69;2073013;28;20030;-59
2024/01/21 04:27:03;;;;;;;1.13;0.60;;;;;;;22.29;40.17;101925.06;2089885;28;20076;-58
2024/01/21 04:28:05;;;;;;;0.82;0.55;;;;;;;22.30;40.06;101925.84;2098750;28;20779;-58
2024/01/21 04:29:07;;;;;;;1.33;0.75;;;;;;;22.30;40.04;101932.13;2089262;28;20030;-58
2024/01/21 04:30:10;;;;;;;1.00;0.60;;;;;;;22.30;40.12;101926.66;2089369;28;20041;-58
2024/01/21 04:31:12;;;;;;;0.80;0.52;;;;;;;22.30;40.05;101926.66;2097715;28;20864;-57
2024/01/21 04:32:14;;;;;;;1.35;0.70;;;;;;;22.30;40.11;101925.84;2089874;28;20041;-59
2024/01/21 04:33:16;;;;;;;0.80;0.70;;;;;;;22.30;39.99;101932.13;2081093;28;20148;-59
2024/01/21 04:34:17;;;;;;;0.98;0.50;;;;;;;22.31;39.95;101927.44;2064399;28;20149;-59
2024/01/21 04:35:19;;;;;;;1.00;0.60;;;;;;;22.30;40.02;101926.66;2081269;28;20022;-58
2024/01/21 04:36:24;;;;;;;0.95;0.70;;;;;;;22.30;40.11;101925.84;2097757;28;20076;-59
2024/01/21 04:37:26;;;;;;;0.90;0.57;;;;;;;22.30;40.00;101926.66;2080858;28;20034;-59
2024/01/21 04:38:27;;;;;;;0.70;0.50;;;;;;;22.31;40.04;101932.94;2072997;28;20032;-59
2024/01/21 04:39:31;;;;;;;0.93;0.60;;;;;;;22.32;40.33;101929.06;2089262;28;20033;-59
2024/01/21 04:40:33;;;;;;;0.82;0.50;;;;;;;22.31;40.10;101928.25;2089180;28;20840;-59
2024/01/21 04:41:34;;;;;;;1.45;0.65;;;;;;;22.32;40.10;101929.88;2081274;28;21410;-58
2024/01/21 04:42:37;;;;;;;1.02;0.68;;;;;;;22.31;40.01;101931.00;2090656;28;20033;-59
2024/01/21 04:43:39;;;;;;;1.30;0.70;;;;;;;22.32;40.01;101935.38;2089161;28;20045;-58
2024/01/21 04:44:40;;;;;;;0.90;0.50;;;;;;;22.31;40.07;101933.72;2073609;28;20042;-58
2024/01/21 04:45:42;;;;;;;0.95;0.60;;;;;;;22.32;40.16;101929.88;2081705;28;20843;-58
2024/01/21 04:46:44;;;;;;;1.27;0.60;;;;;;;22.31;40.04;101933.72;2098440;28;20116;-58
2024/01/21 04:47:46;;;;;;;1.27;0.57;;;;;;;22.32;40.09;101927.16;2107265;28;20139;-58
2024/01/21 04:48:48;;;;;;;1.00;0.57;;;;;;;22.32;40.08;101929.88;2107033;28;20193;-58
2024/01/21 04:49:49;;;;;;;1.50;0.80;;;;;;;22.32;40.09;101934.53;2090252;28;20037;-58